BMT weather

Beaumont Municipal Airport
Beaumont, Texas, United States

Public forecast

Using degrees Fahrenheit for public forecast. Weather courtesy of forecast.io.

Current aviation weather report (METAR) for Beaumont Municipal Airport

Retrieved 2019/12/08 23:35 UTC (24 minutes ago):

KBMT 082335Z AUTO 14007KT 10SM OVC033 20/16 A2996 RMK AO2 T01990163 TSNO

Closest aviation forecast (TAF) to Beaumont Municipal Airport

Closest forecast is Southeast Texas Regional Airport, 12.4 nm (23.0 km) SE. Retrieved 2019/12/08 18:33 UTC (5 hours ago):

TAF KBPT 081731Z 0818/0918 VRB05KT P6SM SCT015 FM081900 17007KT P6SM SKC FM090700 18005KT P6SM OVC015 TEMPO 0910/0914 2SM BR OVC008 FM091500 20007KT P6SM OVC025